Terminal Aerodrome Forecast
Issued by NWS Flagstaff, AZ

Home | Current Version | Previous Version | Text Only | Print | Product List | Glossary On
Versions: 1 2 3 4 5 6 7 8 9 10 11 12 13 14 15 16
000
FTUS45 KFGZ 310226 AAA
TAFFLG
TAF AMD
KFLG 310226Z 3102/3124 VRB06KT P6SM VCTS SCT060CB SCT120
      TEMPO 3102/3104 VRB10G20KT 5SM -TSRA BKN050CB
     FM310400 VRB04KT P6SM SCT070 SCT120
     FM311800 22010KT P6SM SCT060=

USA.gov is the U.S. government's official web portal to all federal, state and local government web resources and services.